createdAt,value
2023-05-13T00:03:09.466Z,101686.03
2023-05-13T00:08:13.497Z,101689.00
2023-05-13T00:13:16.066Z,101690.59
2023-05-13T00:18:18.625Z,101682.00
2023-05-13T00:23:22.642Z,101679.06
2023-05-13T00:28:25.212Z,101686.16
2023-05-13T00:33:27.750Z,101684.09
2023-05-13T00:38:31.654Z,101682.94
2023-05-13T00:43:35.131Z,101679.16
2023-05-13T00:48:37.697Z,101675.16
2023-05-13T00:53:42.646Z,101678.38
2023-05-13T00:58:45.379Z,101677.69
2023-05-13T01:04:08.337Z,101679.03
2023-05-13T01:09:20.279Z,101671.72
2023-05-13T01:14:30.081Z,101677.13
2023-05-13T01:19:42.044Z,101674.28
2023-05-13T01:24:46.656Z,101673.88
2023-05-13T01:29:50.355Z,101666.78
2023-05-13T01:34:59.088Z,101675.34
2023-05-13T01:40:09.648Z,101678.00
2023-05-13T01:45:17.149Z,101672.41
2023-05-13T01:50:19.968Z,101680.53
2023-05-13T01:55:24.217Z,101682.63
2023-05-13T02:00:27.492Z,101683.84
2023-05-13T02:05:31.477Z,101690.13
2023-05-13T02:10:35.408Z,101683.56
2023-05-13T02:15:38.534Z,101684.81
2023-05-13T02:20:41.829Z,101679.03
2023-05-13T02:25:45.795Z,101686.25
2023-05-13T02:30:48.801Z,101586.28
2023-05-13T02:35:51.399Z,101677.50
2023-05-13T02:40:55.558Z,101673.50
2023-05-13T02:46:00.722Z,101677.03
2023-05-13T02:51:03.407Z,101658.84
2023-05-13T02:56:07.817Z,101665.47
2023-05-13T03:01:11.965Z,101587.25
2023-05-13T03:06:14.754Z,101672.00
2023-05-13T03:11:18.716Z,101674.88
2023-05-13T03:16:21.308Z,101679.63
2023-05-13T03:21:24.012Z,101639.25
2023-05-13T03:26:27.919Z,101667.44
2023-05-13T03:31:30.658Z,101673.28
2023-05-13T03:36:35.759Z,101679.81
2023-05-13T03:41:40.049Z,101678.34
2023-05-13T03:46:43.494Z,101666.66
2023-05-13T03:51:46.730Z,101674.09
2023-05-13T03:56:51.062Z,101674.19
2023-05-13T04:01:53.953Z,101686.69
2023-05-13T04:06:56.554Z,101683.19
2023-05-13T04:12:01.266Z,101679.00
2023-05-13T04:17:23.874Z,101694.38
2023-05-13T04:22:46.971Z,101693.84
2023-05-13T04:28:11.627Z,101692.81
2023-05-13T04:33:37.481Z,101693.31
2023-05-13T04:39:00.256Z,101697.81
2023-05-13T04:44:24.488Z,101700.66
2023-05-13T04:49:47.049Z,101696.09
2023-05-13T04:55:10.449Z,101706.75
2023-05-13T05:00:34.858Z,101706.22
2023-05-13T05:05:57.555Z,101715.31
2023-05-13T05:11:01.479Z,101714.13
2023-05-13T05:16:06.907Z,101721.63
2023-05-13T05:21:09.712Z,101717.47
2023-05-13T05:26:12.703Z,101725.06
2023-05-13T05:31:19.834Z,101730.78
2023-05-13T05:36:22.653Z,101719.94
2023-05-13T05:41:26.755Z,101730.97
2023-05-13T05:46:31.332Z,101736.47
2023-05-13T05:51:34.863Z,101730.88
2023-05-13T05:56:39.152Z,101741.59
2023-05-13T06:01:43.105Z,101744.63
2023-05-13T06:06:46.220Z,101737.94
2023-05-13T06:11:48.911Z,101739.81
2023-05-13T06:16:54.998Z,101745.16
2023-05-13T06:21:58.427Z,101744.88
2023-05-13T06:27:01.548Z,101753.09
2023-05-13T06:32:06.472Z,101755.59
2023-05-13T06:37:09.456Z,101767.94
2023-05-13T06:42:14.132Z,101758.06
2023-05-13T06:47:24.034Z,101762.56
2023-05-13T06:52:27.002Z,101758.72
2023-05-13T06:57:41.425Z,101757.50
2023-05-13T07:02:46.643Z,101763.69
2023-05-13T07:07:53.433Z,101759.25
2023-05-13T07:12:56.411Z,101765.53
2023-05-13T07:18:00.590Z,101765.00
2023-05-13T07:23:03.649Z,101771.72
2023-05-13T07:28:06.300Z,101772.03
2023-05-13T07:33:10.701Z,101781.81
2023-05-13T07:38:13.254Z,101786.31
2023-05-13T07:43:17.823Z,101781.03
2023-05-13T07:48:21.820Z,101777.56
2023-05-13T07:53:24.690Z,101764.38
2023-05-13T07:58:27.247Z,101774.00
2023-05-13T08:03:31.318Z,101772.72
2023-05-13T08:08:34.154Z,101775.44
2023-05-13T08:13:36.798Z,101767.59
2023-05-13T08:18:40.873Z,101770.22
2023-05-13T08:23:45.720Z,101768.53
2023-05-13T08:28:49.922Z,101764.75
2023-05-13T08:33:55.575Z,101770.00
2023-05-13T08:38:58.153Z,101762.22
2023-05-13T08:44:01.773Z,101764.41
2023-05-13T08:49:06.323Z,101767.59
2023-05-13T08:54:10.696Z,101775.72
2023-05-13T08:59:13.267Z,101777.19
2023-05-13T09:04:17.903Z,101784.25
2023-05-13T09:09:20.834Z,101767.31
2023-05-13T09:14:28.470Z,101783.25
2023-05-13T09:19:32.577Z,101778.63
2023-05-13T09:24:35.678Z,101766.19
2023-05-13T09:29:38.813Z,101765.22
2023-05-13T09:34:48.930Z,101731.72
2023-05-13T09:39:53.428Z,101724.75
2023-05-13T09:44:56.526Z,101749.00
2023-05-13T09:50:03.297Z,101743.94
2023-05-13T09:55:10.147Z,101741.81
2023-05-13T10:00:21.396Z,101749.81
2023-05-13T10:05:34.104Z,101733.81
2023-05-13T10:10:37.773Z,101730.75
2023-05-13T10:15:50.957Z,101722.22
2023-05-13T10:20:55.681Z,101726.66
2023-05-13T10:26:00.494Z,101728.69
2023-05-13T10:31:03.230Z,101716.25
2023-05-13T10:36:22.891Z,101713.75
2023-05-13T10:41:52.533Z,101715.53
2023-05-13T10:46:57.183Z,101714.38
2023-05-13T10:52:07.114Z,101705.38
2023-05-13T10:57:10.624Z,101702.84
2023-05-13T11:02:22.585Z,101710.06
2023-05-13T11:07:30.035Z,101693.81
2023-05-13T11:12:32.630Z,101684.75
2023-05-13T11:17:37.990Z,101691.69
2023-05-13T11:22:42.515Z,101681.22
2023-05-13T11:27:47.206Z,101674.78
2023-05-13T11:32:55.933Z,101680.13
2023-05-13T11:38:01.205Z,101675.66
2023-05-13T11:43:05.447Z,101663.31
2023-05-13T11:48:19.934Z,101660.22
2023-05-13T11:53:23.819Z,101658.16
2023-05-13T11:58:26.782Z,101664.19
2023-05-13T12:03:29.447Z,101665.00
2023-05-13T12:08:34.044Z,101666.78
2023-05-13T12:13:36.770Z,101666.88
2023-05-13T12:18:39.537Z,101597.88
2023-05-13T12:23:43.494Z,101656.25
2023-05-13T12:28:46.077Z,101659.53
2023-05-13T12:33:49.332Z,101657.84
2023-05-13T12:39:00.092Z,101642.13
2023-05-13T12:44:04.919Z,101652.19
2023-05-13T12:49:11.944Z,101634.84
2023-05-13T12:54:15.992Z,101658.13
2023-05-13T12:59:19.068Z,101660.22
2023-05-13T13:04:21.686Z,101667.81
2023-05-13T13:09:25.609Z,101666.81
2023-05-13T13:14:28.131Z,101666.47
2023-05-13T13:19:31.052Z,101641.44
2023-05-13T13:24:35.462Z,101659.63
2023-05-13T13:29:38.191Z,101665.13
2023-05-13T13:34:40.763Z,101653.13
2023-05-13T13:39:44.681Z,101646.19
2023-05-13T13:44:47.248Z,101638.94
2023-05-13T13:49:51.573Z,101648.34
2023-05-13T13:54:55.542Z,101631.72
2023-05-13T13:59:58.138Z,101624.47
2023-05-13T14:05:00.779Z,101616.53
2023-05-13T14:10:05.468Z,101626.84
2023-05-13T14:15:09.225Z,101620.75
2023-05-13T14:20:12.290Z,101615.16
2023-05-13T14:25:16.513Z,101628.28
2023-05-13T14:30:19.159Z,101631.78
2023-05-13T14:35:21.797Z,101615.91
2023-05-13T14:40:25.798Z,101605.66
2023-05-13T14:45:28.526Z,101611.97
2023-05-13T14:50:31.088Z,101601.97
2023-05-13T14:55:35.716Z,101600.50
2023-05-13T15:00:38.826Z,101594.09
2023-05-13T15:05:44.018Z,101590.06
2023-05-13T15:10:48.310Z,101597.34
2023-05-13T15:15:51.311Z,101588.56
2023-05-13T15:20:53.863Z,101592.06
2023-05-13T15:25:58.152Z,101586.72
2023-05-13T15:31:01.071Z,101581.88
2023-05-13T15:36:05.648Z,101580.78
2023-05-13T15:41:09.581Z,101589.44
2023-05-13T15:46:12.302Z,101590.25
2023-05-13T15:51:15.014Z,101599.16
2023-05-13T15:56:19.563Z,101608.03
2023-05-13T16:01:22.612Z,101615.00
2023-05-13T16:06:25.636Z,101622.88
2023-05-13T16:11:29.662Z,101617.66
2023-05-13T16:16:32.322Z,101622.66
2023-05-13T16:21:35.346Z,101632.34
2023-05-13T16:26:39.549Z,101646.53
2023-05-13T16:31:42.201Z,101642.00
2023-05-13T16:36:45.309Z,101609.91
2023-05-13T16:41:49.817Z,101609.91
2023-05-13T16:46:52.610Z,101593.41
2023-05-13T16:51:58.534Z,101597.03
2023-05-13T16:57:04.043Z,101617.59
2023-05-13T17:02:09.915Z,101606.28
2023-05-13T17:07:17.117Z,101608.56
2023-05-13T17:12:23.039Z,101624.59
2023-05-13T17:17:25.739Z,101635.78
2023-05-13T17:22:28.362Z,101623.63
2023-05-13T17:27:32.599Z,101613.75
2023-05-13T17:32:35.524Z,101615.31
2023-05-13T17:37:38.249Z,101605.47
2023-05-13T17:42:42.196Z,101597.34
2023-05-13T17:47:44.962Z,101589.38
2023-05-13T17:52:47.663Z,101602.50
2023-05-13T17:57:51.831Z,101619.19
2023-05-13T18:02:54.637Z,101626.88
2023-05-13T18:07:57.340Z,101635.91
2023-05-13T18:13:01.225Z,101632.19
2023-05-13T18:18:05.328Z,101614.16
2023-05-13T18:23:08.141Z,101604.25
2023-05-13T18:28:12.266Z,101610.47
2023-05-13T18:33:14.923Z,101573.00
2023-05-13T18:38:17.769Z,101593.03
2023-05-13T18:43:21.730Z,101597.66
2023-05-13T18:48:24.903Z,101595.94
2023-05-13T18:53:27.521Z,101606.63
2023-05-13T18:58:31.426Z,101619.78
2023-05-13T19:03:34.053Z,101628.53
2023-05-13T19:08:37.124Z,101637.19
2023-05-13T19:18:49.107Z,101627.81
2023-05-13T19:23:51.719Z,101640.50
2023-05-13T19:28:57.205Z,101633.00
2023-05-13T19:34:01.223Z,101640.03
2023-05-13T19:39:05.863Z,101653.53
2023-05-13T19:44:12.023Z,101637.59
2023-05-13T19:49:14.992Z,101647.13
2023-05-13T19:54:17.814Z,101646.06
2023-05-13T19:59:21.775Z,101648.47
2023-05-13T20:04:24.337Z,101642.75
2023-05-13T20:09:26.952Z,101647.13
2023-05-13T20:14:43.720Z,101644.50
2023-05-13T20:19:47.214Z,101643.91
2023-05-13T20:24:51.378Z,101653.19
2023-05-13T20:29:56.815Z,101647.16
2023-05-13T20:34:59.482Z,101649.53
2023-05-13T20:40:02.312Z,101649.69
2023-05-13T20:45:08.569Z,101647.47
2023-05-13T20:50:12.401Z,101653.19
2023-05-13T20:55:15.627Z,101651.97
2023-05-13T21:00:21.392Z,101652.75
2023-05-13T21:05:24.285Z,101656.16
2023-05-13T21:10:26.985Z,101655.47
2023-05-13T21:15:31.186Z,101656.56
2023-05-13T21:20:33.774Z,101661.78
2023-05-13T21:25:36.461Z,101660.91
2023-05-13T21:30:40.450Z,101654.41
2023-05-13T21:35:43.053Z,101648.88
2023-05-13T21:40:45.635Z,101651.31
2023-05-13T21:45:50.094Z,101652.34
2023-05-13T21:50:52.735Z,101645.91
2023-05-13T21:55:56.497Z,101649.13
2023-05-13T22:01:01.223Z,101644.53
2023-05-13T22:06:04.233Z,101647.34
2023-05-13T22:11:07.227Z,101625.50
2023-05-13T22:16:11.726Z,101628.63
2023-05-13T22:21:14.336Z,101651.72
2023-05-13T22:26:17.575Z,101648.19
2023-05-13T22:31:21.469Z,101650.66
2023-05-13T22:36:24.086Z,101647.91
2023-05-13T22:41:26.673Z,101643.09
2023-05-13T22:46:31.111Z,101630.09
2023-05-13T22:51:34.181Z,101644.22
2023-05-13T22:56:36.709Z,101641.69
2023-05-13T23:01:41.725Z,101633.91
2023-05-13T23:06:44.501Z,101624.41
2023-05-13T23:11:47.046Z,101618.25
2023-05-13T23:16:50.981Z,101617.63
2023-05-13T23:21:53.886Z,101615.16
2023-05-13T23:26:56.432Z,101612.81
2023-05-13T23:32:00.476Z,101613.25
2023-05-13T23:37:03.070Z,101611.88
2023-05-13T23:42:05.782Z,101613.16
2023-05-13T23:47:09.958Z,101608.47
2023-05-13T23:52:12.584Z,101597.25
2023-05-13T23:57:15.496Z,101604.41
